createdAt,value
2018-02-25T00:00:46.015Z,51.20
2018-02-25T00:03:13.628Z,51.30
2018-02-25T00:05:42.176Z,51.30
2018-02-25T00:08:09.762Z,51.30
2018-02-25T00:10:37.358Z,51.80
2018-02-25T00:13:04.940Z,51.30
2018-02-25T00:15:32.693Z,51.30
2018-02-25T00:18:00.282Z,51.30
2018-02-25T00:20:27.875Z,51.30
2018-02-25T00:22:56.222Z,51.30
2018-02-25T00:25:23.800Z,51.30
2018-02-25T00:27:52.234Z,51.40
2018-02-25T00:30:19.803Z,51.40
2018-02-25T00:32:47.462Z,51.20
2018-02-25T00:35:15.048Z,51.20
2018-02-25T00:37:42.624Z,51.30
2018-02-25T00:40:10.959Z,51.40
2018-02-25T00:42:38.739Z,51.30
2018-02-25T00:45:06.323Z,51.40
2018-02-25T00:47:34.764Z,51.40
2018-02-25T00:50:02.340Z,51.40
2018-02-25T00:52:29.909Z,51.50
2018-02-25T00:54:58.252Z,51.60
2018-02-25T00:57:25.840Z,51.60
2018-02-25T00:59:53.423Z,51.60
2018-02-25T01:02:21.010Z,51.60
2018-02-25T01:04:48.586Z,51.60
2018-02-25T01:07:17.203Z,51.60
2018-02-25T01:09:47.932Z,51.60
2018-02-25T01:12:16.563Z,51.50
2018-02-25T01:14:46.463Z,51.20
2018-02-25T01:17:15.053Z,51.20
2018-02-25T01:19:42.784Z,51.20
2018-02-25T01:22:11.209Z,51.20
2018-02-25T01:24:40.671Z,51.20
2018-02-25T01:27:08.309Z,51.30
2018-02-25T01:29:36.656Z,51.20
2018-02-25T01:32:04.260Z,51.20
2018-02-25T01:34:32.625Z,51.20
2018-02-25T01:37:01.041Z,51.30
2018-02-25T01:39:29.251Z,51.30
2018-02-25T01:41:58.802Z,51.30
2018-02-25T01:44:27.463Z,51.20
2018-02-25T01:46:56.992Z,51.20
2018-02-25T01:49:26.820Z,51.30
2018-02-25T01:51:56.632Z,51.30
2018-02-25T01:54:25.724Z,51.10
2018-02-25T01:56:54.312Z,51.10
2018-02-25T01:59:21.920Z,51.20
2018-02-25T02:01:49.520Z,51.20
2018-02-25T02:04:17.114Z,51.30
2018-02-25T02:06:46.693Z,51.40
2018-02-25T02:09:15.310Z,51.30
2018-02-25T02:11:42.927Z,51.20
2018-02-25T02:14:10.516Z,51.30
2018-02-25T02:16:39.116Z,51.20
2018-02-25T02:19:06.679Z,51.20
2018-02-25T02:21:34.252Z,51.20
2018-02-25T02:24:01.833Z,51.20
2018-02-25T02:26:30.031Z,51.10
2018-02-25T02:28:57.660Z,51.10
2018-02-25T02:31:25.242Z,51.20
2018-02-25T02:33:53.088Z,51.20
2018-02-25T02:36:20.670Z,51.20
2018-02-25T02:38:48.259Z,51.20
2018-02-25T02:41:17.928Z,51.20
2018-02-25T02:43:46.328Z,51.90
2018-02-25T02:46:16.214Z,51.10
2018-02-25T02:48:44.923Z,51.20
2018-02-25T02:51:14.588Z,51.10
2018-02-25T02:53:44.801Z,50.90
2018-02-25T02:56:13.612Z,50.80
2018-02-25T02:58:43.423Z,50.80
2018-02-25T03:01:12.487Z,50.80
2018-02-25T03:03:42.331Z,50.90
2018-02-25T03:06:11.018Z,50.80
2018-02-25T03:08:39.485Z,50.80
2018-02-25T03:11:08.588Z,50.70
2018-02-25T03:13:38.809Z,50.70
2018-02-25T03:16:08.420Z,50.70
2018-02-25T03:18:37.511Z,50.60
2018-02-25T03:21:07.315Z,50.60
2018-02-25T03:23:36.902Z,50.60
2018-02-25T03:26:05.200Z,50.60
2018-02-25T03:28:33.942Z,50.60
2018-02-25T03:31:03.395Z,50.50
2018-02-25T03:33:32.164Z,50.50
2018-02-25T03:36:02.426Z,50.50
2018-02-25T03:38:30.765Z,51.10
2018-02-25T03:41:00.474Z,50.50
2018-02-25T03:43:30.235Z,50.50
2018-02-25T03:45:59.730Z,50.40
2018-02-25T03:48:28.985Z,50.40
2018-02-25T03:50:59.085Z,50.40
2018-02-25T03:53:28.979Z,50.40
2018-02-25T03:55:57.606Z,50.40
2018-02-25T03:58:26.796Z,50.40
2018-02-25T04:00:56.706Z,50.40
2018-02-25T04:03:25.673Z,50.30
2018-02-25T04:05:54.571Z,50.30
2018-02-25T04:08:24.727Z,50.30
2018-02-25T04:10:53.697Z,50.30
2018-02-25T04:13:22.660Z,50.30
2018-02-25T04:15:51.377Z,50.30
2018-02-25T04:18:19.951Z,50.30
2018-02-25T04:20:49.325Z,50.20
2018-02-25T04:23:20.085Z,50.20
2018-02-25T04:25:49.443Z,50.20
2018-02-25T04:28:19.096Z,50.20
2018-02-25T04:30:47.570Z,50.10
2018-02-25T04:33:17.487Z,50.20
2018-02-25T04:35:46.864Z,50.20
2018-02-25T04:38:15.470Z,50.20
2018-02-25T04:40:46.802Z,50.20
2018-02-25T04:43:16.323Z,50.70
2018-02-25T04:45:46.236Z,50.10
2018-02-25T04:48:17.276Z,50.20
2018-02-25T04:50:46.369Z,50.40
2018-02-25T04:53:15.560Z,50.10
2018-02-25T04:55:45.128Z,50.10
2018-02-25T04:58:15.083Z,50.10
2018-02-25T05:00:43.284Z,50.10
2018-02-25T05:03:12.009Z,50.10
2018-02-25T05:05:41.129Z,50.10
2018-02-25T05:08:11.247Z,50.10
2018-02-25T05:10:42.088Z,50.10
2018-02-25T05:13:10.786Z,50.10
2018-02-25T05:15:40.175Z,50.00
2018-02-25T05:18:08.442Z,50.00
2018-02-25T05:20:37.045Z,50.00
2018-02-25T05:23:07.050Z,50.00
2018-02-25T05:25:35.440Z,50.40
2018-02-25T05:28:03.638Z,49.90
2018-02-25T05:30:31.232Z,50.00
2018-02-25T05:33:00.137Z,50.00
2018-02-25T05:35:28.924Z,49.90
2018-02-25T05:37:59.384Z,50.00
2018-02-25T05:40:28.514Z,49.90
2018-02-25T05:42:56.146Z,49.80
2018-02-25T05:45:24.424Z,50.00
2018-02-25T05:47:52.753Z,49.90
2018-02-25T05:50:21.377Z,49.80
2018-02-25T05:52:49.969Z,49.80
2018-02-25T05:55:22.145Z,49.90
2018-02-25T05:57:50.868Z,49.80
2018-02-25T06:00:20.189Z,49.80
2018-02-25T06:02:48.850Z,49.80
2018-02-25T06:05:16.444Z,49.80
2018-02-25T06:07:46.022Z,49.80
2018-02-25T06:10:14.127Z,49.80
2018-02-25T06:12:41.802Z,49.80
2018-02-25T06:15:12.934Z,49.80
2018-02-25T06:17:41.388Z,49.80
2018-02-25T06:20:09.508Z,49.70
2018-02-25T06:22:37.593Z,49.80
2018-02-25T06:25:05.693Z,49.70
2018-02-25T06:27:34.735Z,50.30
2018-02-25T06:30:03.656Z,49.70
2018-02-25T06:32:32.353Z,49.70
2018-02-25T06:35:00.481Z,49.70
2018-02-25T06:37:29.669Z,49.70
2018-02-25T06:39:58.011Z,49.70
2018-02-25T06:42:25.599Z,49.70
2018-02-25T06:44:53.949Z,49.70
2018-02-25T06:47:21.523Z,49.70
2018-02-25T06:49:49.111Z,49.70
2018-02-25T06:52:16.712Z,49.70
2018-02-25T06:54:44.318Z,49.70
2018-02-25T06:57:12.679Z,49.70
2018-02-25T06:59:41.086Z,49.70
2018-02-25T07:02:08.721Z,49.70
2018-02-25T07:04:36.315Z,49.70
2018-02-25T07:07:03.909Z,49.70
2018-02-25T07:09:31.503Z,49.60
2018-02-25T07:11:59.091Z,49.60
2018-02-25T07:14:26.677Z,49.60
2018-02-25T07:16:54.272Z,49.60
2018-02-25T07:19:21.873Z,49.60
2018-02-25T07:21:49.467Z,49.70
2018-02-25T07:24:17.086Z,49.60
2018-02-25T07:26:44.814Z,49.60
2018-02-25T07:29:12.548Z,49.60
2018-02-25T07:31:40.126Z,49.60
2018-02-25T07:34:07.727Z,49.60
2018-02-25T07:36:35.305Z,49.60
2018-02-25T07:39:02.904Z,49.60
2018-02-25T07:41:30.485Z,49.60
2018-02-25T07:43:59.031Z,49.50
2018-02-25T07:46:27.397Z,49.50
2018-02-25T07:48:55.016Z,49.60
2018-02-25T07:51:22.604Z,49.50
2018-02-25T07:53:50.204Z,49.50
2018-02-25T07:56:18.541Z,49.50
2018-02-25T07:58:46.179Z,49.50
2018-02-25T08:01:13.845Z,49.50
2018-02-25T08:03:41.434Z,49.50
2018-02-25T08:06:09.041Z,49.50
2018-02-25T08:08:36.650Z,49.50
2018-02-25T08:11:04.423Z,49.50
2018-02-25T08:13:32.175Z,49.50
2018-02-25T08:15:59.741Z,49.50
2018-02-25T08:18:27.495Z,49.50
2018-02-25T08:20:55.078Z,49.50
2018-02-25T08:23:22.655Z,49.50
2018-02-25T08:25:50.315Z,49.50
2018-02-25T08:28:17.899Z,49.50
2018-02-25T08:30:45.551Z,49.50
2018-02-25T08:33:13.113Z,49.50
2018-02-25T08:35:40.739Z,49.50
2018-02-25T08:38:09.095Z,49.60
2018-02-25T08:40:37.660Z,49.50
2018-02-25T08:43:05.227Z,49.60
2018-02-25T08:45:32.795Z,49.60
2018-02-25T08:48:00.386Z,49.50
2018-02-25T08:50:27.950Z,49.60
2018-02-25T08:52:55.596Z,49.60
2018-02-25T08:55:23.209Z,49.60
2018-02-25T08:57:50.975Z,49.60
2018-02-25T09:00:18.573Z,49.60
2018-02-25T09:02:46.137Z,49.60
2018-02-25T09:05:14.562Z,49.60
2018-02-25T09:07:42.138Z,49.60
2018-02-25T09:10:09.724Z,49.60
2018-02-25T09:12:37.980Z,49.60
2018-02-25T09:15:06.396Z,50.20
2018-02-25T09:17:34.811Z,49.60
2018-02-25T09:20:02.419Z,49.60
2018-02-25T09:22:29.999Z,49.60
2018-02-25T09:24:57.591Z,49.70
2018-02-25T09:27:25.366Z,49.70
2018-02-25T09:29:52.956Z,49.70
2018-02-25T09:32:20.538Z,49.70
2018-02-25T09:34:48.194Z,49.70
2018-02-25T09:37:15.791Z,49.70
2018-02-25T09:39:43.402Z,49.70
2018-02-25T09:42:10.975Z,49.70
2018-02-25T09:44:38.590Z,49.70
2018-02-25T09:47:07.008Z,49.70
2018-02-25T09:55:46.736Z,49.80
2018-02-25T09:58:14.791Z,49.70
2018-02-25T10:00:42.447Z,49.70
2018-02-25T10:03:10.212Z,49.70
2018-02-25T10:05:37.926Z,49.70
2018-02-25T10:08:05.527Z,50.30
2018-02-25T10:10:33.132Z,49.70
2018-02-25T10:13:01.492Z,49.70
2018-02-25T10:15:29.852Z,50.10
2018-02-25T10:17:57.429Z,49.70
2018-02-25T10:20:25.028Z,49.70
2018-02-25T10:22:52.603Z,49.70
2018-02-25T10:25:26.585Z,49.70
2018-02-25T10:27:54.244Z,49.70
2018-02-25T10:30:21.859Z,49.70
2018-02-25T10:32:49.447Z,49.70
2018-02-25T10:35:17.835Z,49.70
2018-02-25T10:37:45.444Z,49.70
2018-02-25T10:40:13.095Z,49.70
2018-02-25T10:42:40.672Z,49.70
2018-02-25T10:45:08.266Z,49.70
2018-02-25T10:47:36.694Z,49.70
2018-02-25T10:50:04.312Z,49.70
2018-02-25T10:52:31.886Z,49.70
2018-02-25T10:54:59.475Z,49.70
2018-02-25T10:57:27.177Z,49.70
2018-02-25T10:59:56.637Z,49.60
2018-02-25T11:02:24.262Z,49.60
2018-02-25T11:04:51.849Z,49.70
2018-02-25T11:07:19.434Z,49.60
2018-02-25T11:09:46.999Z,49.60
2018-02-25T11:12:14.603Z,49.60
2018-02-25T11:14:42.286Z,49.60
2018-02-25T11:17:09.884Z,49.60
2018-02-25T11:19:38.920Z,49.60
2018-02-25T11:22:06.594Z,49.50
2018-02-25T11:24:34.187Z,49.60
2018-02-25T11:27:01.784Z,49.60
2018-02-25T11:29:29.366Z,49.60
2018-02-25T11:31:57.169Z,49.60
2018-02-25T11:34:25.590Z,50.20
2018-02-25T11:36:53.296Z,49.50
2018-02-25T11:39:20.984Z,49.60
2018-02-25T11:41:49.404Z,49.50
2018-02-25T11:44:17.086Z,49.50
2018-02-25T11:46:44.682Z,49.50
2018-02-25T11:49:12.287Z,49.40
2018-02-25T11:51:40.060Z,49.50
2018-02-25T11:54:09.127Z,49.50
2018-02-25T11:56:37.570Z,49.50
2018-02-25T11:59:05.192Z,49.50
2018-02-25T12:01:32.808Z,49.50
2018-02-25T12:04:00.406Z,49.50
2018-02-25T12:06:28.208Z,49.50
2018-02-25T12:08:56.928Z,49.40
2018-02-25T12:11:24.557Z,49.40
2018-02-25T12:13:53.028Z,49.40
2018-02-25T12:16:21.505Z,49.40
2018-02-25T12:18:49.860Z,49.40
2018-02-25T12:21:17.558Z,49.40
2018-02-25T12:23:45.185Z,49.40
2018-02-25T12:26:12.762Z,49.40
2018-02-25T12:28:40.484Z,49.30
2018-02-25T12:31:08.062Z,49.30
2018-02-25T12:33:37.288Z,49.40
2018-02-25T12:36:05.639Z,49.40
2018-02-25T12:38:33.302Z,49.30
2018-02-25T12:41:06.498Z,49.40
2018-02-25T12:43:36.059Z,49.40
2018-02-25T12:46:06.901Z,49.40
2018-02-25T12:48:36.022Z,49.40
2018-02-25T12:51:05.202Z,49.30
2018-02-25T12:53:33.768Z,49.30
2018-02-25T12:56:03.713Z,49.30
2018-02-25T12:58:31.423Z,49.30
2018-02-25T13:00:59.017Z,49.30
2018-02-25T13:03:27.751Z,49.30
2018-02-25T13:05:56.784Z,49.30
2018-02-25T13:08:24.368Z,49.30
2018-02-25T13:10:52.355Z,49.00
2018-02-25T13:13:20.010Z,49.00
2018-02-25T13:15:48.527Z,49.00
2018-02-25T13:18:17.444Z,48.90
2018-02-25T13:20:45.145Z,49.00
2018-02-25T13:23:13.659Z,49.00
2018-02-25T13:25:41.881Z,49.00
2018-02-25T13:28:09.538Z,49.00
2018-02-25T13:30:37.152Z,49.00
2018-02-25T13:33:05.018Z,49.00
2018-02-25T13:35:32.836Z,48.90
2018-02-25T13:38:00.447Z,48.90
2018-02-25T13:40:28.077Z,49.00
2018-02-25T13:42:57.227Z,49.00
2018-02-25T13:45:26.129Z,49.00
2018-02-25T13:47:54.275Z,49.00
2018-02-25T13:50:24.286Z,49.00
2018-02-25T13:52:53.831Z,49.10
2018-02-25T13:55:21.551Z,49.00
2018-02-25T13:57:49.168Z,49.10
2018-02-25T14:00:16.835Z,49.70
2018-02-25T14:02:45.212Z,49.10
2018-02-25T14:05:14.954Z,49.10
2018-02-25T14:07:44.351Z,49.10
2018-02-25T14:10:13.241Z,49.00
2018-02-25T14:12:41.464Z,49.00
2018-02-25T14:15:11.531Z,49.10
2018-02-25T14:17:41.347Z,49.10
2018-02-25T14:20:12.080Z,49.10
2018-02-25T14:22:40.906Z,49.00
2018-02-25T14:25:10.055Z,49.10
2018-02-25T14:27:39.489Z,49.10
2018-02-25T14:30:08.970Z,49.00
2018-02-25T14:32:37.629Z,49.00
2018-02-25T14:35:05.309Z,49.00
2018-02-25T14:37:32.924Z,49.00
2018-02-25T14:40:01.349Z,49.00
2018-02-25T14:42:28.968Z,49.00
2018-02-25T14:44:58.324Z,49.10
2018-02-25T14:47:28.732Z,49.10
2018-02-25T14:49:58.193Z,49.00
2018-02-25T14:52:26.832Z,48.90
2018-02-25T14:54:56.624Z,49.00
2018-02-25T14:57:27.458Z,49.00
2018-02-25T14:59:58.601Z,49.00
2018-02-25T15:02:28.002Z,49.00
2018-02-25T15:04:56.883Z,49.00
2018-02-25T15:07:25.301Z,49.00
2018-02-25T15:09:57.386Z,49.00
2018-02-25T15:12:26.626Z,48.90
2018-02-25T15:14:55.519Z,49.00
2018-02-25T15:17:26.159Z,49.00
2018-02-25T15:19:56.982Z,49.00
2018-02-25T15:22:27.458Z,49.00
2018-02-25T15:24:57.018Z,49.00
2018-02-25T15:27:25.820Z,49.00
2018-02-25T15:29:55.505Z,49.00
2018-02-25T15:32:25.114Z,49.00
2018-02-25T15:34:55.320Z,49.00
2018-02-25T15:37:26.627Z,48.90
2018-02-25T15:39:56.081Z,48.90
2018-02-25T15:42:24.851Z,48.90
2018-02-25T15:44:54.265Z,49.00
2018-02-25T15:47:25.248Z,48.90
2018-02-25T15:49:54.550Z,49.00
2018-02-25T15:52:25.246Z,49.00
2018-02-25T15:54:54.226Z,49.00
2018-02-25T15:57:24.483Z,49.00
2018-02-25T15:59:54.377Z,49.00
2018-02-25T16:02:22.472Z,49.00
2018-02-25T16:04:51.061Z,49.00
2018-02-25T16:07:20.212Z,49.00
2018-02-25T16:09:48.755Z,49.00
2018-02-25T16:14:49.273Z,49.00
2018-02-25T16:17:17.130Z,49.00
2018-02-25T16:19:44.743Z,49.00
2018-02-25T16:22:12.486Z,49.00
2018-02-25T16:24:40.579Z,49.00
2018-02-25T16:27:09.320Z,49.00
2018-02-25T16:29:36.918Z,49.00
2018-02-25T16:32:04.758Z,49.00
2018-02-25T16:34:32.390Z,49.00
2018-02-25T16:37:01.005Z,49.00
2018-02-25T16:39:28.583Z,48.90
2018-02-25T16:41:56.168Z,48.90
2018-02-25T16:44:24.207Z,48.90
2018-02-25T16:48:09.249Z,48.80
2018-02-25T16:50:38.443Z,49.00
2018-02-25T16:53:06.891Z,48.90
2018-02-25T16:55:34.707Z,48.90
2018-02-25T16:58:02.329Z,48.90
2018-02-25T17:00:29.984Z,48.90
2018-02-25T17:02:57.611Z,48.90
2018-02-25T17:05:25.233Z,48.90
2018-02-25T17:07:52.991Z,48.90
2018-02-25T17:10:21.221Z,48.90
2018-02-25T17:12:49.010Z,48.90
2018-02-25T17:15:17.603Z,48.90
2018-02-25T17:17:46.024Z,49.00
2018-02-25T17:20:13.682Z,48.90
2018-02-25T17:22:41.343Z,49.50
2018-02-25T17:25:08.984Z,49.00
2018-02-25T17:27:36.561Z,49.00
2018-02-25T17:30:04.230Z,49.00
2018-02-25T17:32:31.876Z,49.00
2018-02-25T17:34:59.472Z,49.00
2018-02-25T17:37:27.069Z,49.00
2018-02-25T17:39:55.565Z,49.00
2018-02-25T17:42:23.109Z,48.90
2018-02-25T17:44:50.704Z,48.90
2018-02-25T17:47:18.286Z,48.90
2018-02-25T17:49:45.887Z,48.90
2018-02-25T17:52:13.511Z,49.00
2018-02-25T17:54:41.132Z,48.90
2018-02-25T17:57:08.712Z,48.90
2018-02-25T17:59:36.327Z,48.90
2018-02-25T18:02:04.699Z,49.00
2018-02-25T18:04:32.411Z,48.90
2018-02-25T18:07:00.041Z,48.90
2018-02-25T18:09:27.645Z,48.90
2018-02-25T18:11:55.338Z,48.90
2018-02-25T18:14:23.742Z,48.90
2018-02-25T18:16:51.396Z,48.90
2018-02-25T18:19:19.064Z,48.90
2018-02-25T18:21:46.701Z,48.90
2018-02-25T18:24:14.394Z,48.90
2018-02-25T18:26:42.011Z,48.90
2018-02-25T18:29:10.574Z,48.90
2018-02-25T18:31:38.312Z,48.80
2018-02-25T18:34:05.977Z,48.90
2018-02-25T18:36:33.598Z,48.90
2018-02-25T18:39:01.327Z,48.90
2018-02-25T18:41:29.796Z,48.90
2018-02-25T18:43:57.397Z,48.80
2018-02-25T18:46:25.096Z,48.90
2018-02-25T18:48:52.729Z,48.90
2018-02-25T18:51:21.831Z,48.90
2018-02-25T18:53:50.272Z,48.90
2018-02-25T18:56:18.608Z,49.10
2018-02-25T18:58:47.462Z,49.00
2018-02-25T19:01:15.123Z,49.20
2018-02-25T19:03:42.824Z,49.20
2018-02-25T19:06:10.382Z,49.20
2018-02-25T19:08:39.152Z,49.40
2018-02-25T19:11:06.798Z,49.40
2018-02-25T19:13:34.387Z,49.40
2018-02-25T19:16:01.952Z,49.40
2018-02-25T19:18:29.540Z,49.50
2018-02-25T19:20:57.116Z,49.50
2018-02-25T19:23:24.725Z,49.50
2018-02-25T19:25:53.373Z,49.90
2018-02-25T19:28:22.057Z,49.90
2018-02-25T19:30:49.928Z,49.90
2018-02-25T19:33:17.507Z,49.90
2018-02-25T19:35:50.879Z,50.00
2018-02-25T19:38:24.574Z,50.10
2018-02-25T19:40:57.842Z,50.20
2018-02-25T19:43:25.518Z,50.20
2018-02-25T19:45:53.333Z,50.20
2018-02-25T19:48:21.740Z,50.20
2018-02-25T19:50:49.444Z,50.10
2018-02-25T19:53:17.316Z,50.20
2018-02-25T19:55:44.917Z,50.10
2018-02-25T19:58:12.493Z,50.00
2018-02-25T20:00:40.464Z,49.90
2018-02-25T20:03:08.079Z,49.80
2018-02-25T20:05:35.673Z,49.80
2018-02-25T20:08:03.268Z,49.70
2018-02-25T20:10:31.247Z,49.70
2018-02-25T20:12:59.594Z,49.70
2018-02-25T20:15:29.740Z,49.70
2018-02-25T20:17:58.399Z,49.70
2018-02-25T20:20:26.979Z,49.70
2018-02-25T20:22:56.350Z,49.60
2018-02-25T20:25:24.863Z,49.60
2018-02-25T20:27:53.440Z,49.60
2018-02-25T20:30:22.027Z,49.60
2018-02-25T20:32:50.713Z,49.60
2018-02-25T20:35:19.696Z,49.70
2018-02-25T20:37:48.757Z,49.60
2018-02-25T20:40:16.488Z,49.50
2018-02-25T20:42:45.534Z,49.50
2018-02-25T20:45:13.229Z,49.50
2018-02-25T20:47:41.998Z,49.50
2018-02-25T20:50:11.292Z,50.10
2018-02-25T20:52:40.146Z,49.50
2018-02-25T20:55:08.861Z,49.60
2018-02-25T20:57:38.141Z,49.50
2018-02-25T21:00:06.381Z,49.50
2018-02-25T21:02:35.736Z,49.50
2018-02-25T21:05:03.876Z,49.50
2018-02-25T21:07:32.713Z,49.50
2018-02-25T21:10:01.071Z,49.50
2018-02-25T21:12:29.732Z,49.50
2018-02-25T21:14:58.474Z,49.50
2018-02-25T21:17:27.744Z,49.60
2018-02-25T21:19:56.932Z,49.50
2018-02-25T21:22:26.128Z,49.40
2018-02-25T21:24:54.443Z,49.40
2018-02-25T21:27:22.676Z,49.40
2018-02-25T21:29:50.692Z,49.40
2018-02-25T21:32:18.751Z,49.40
2018-02-25T21:34:47.288Z,49.40
2018-02-25T21:37:15.328Z,49.40
2018-02-25T21:39:43.400Z,49.30
2018-02-25T21:42:11.515Z,49.40
2018-02-25T21:44:39.585Z,49.30
2018-02-25T21:47:08.609Z,49.30
2018-02-25T21:49:36.746Z,49.30
2018-02-25T21:52:04.775Z,49.30
2018-02-25T21:54:38.339Z,49.30
2018-02-25T21:57:12.101Z,49.30
2018-02-25T21:59:45.978Z,49.30
2018-02-25T22:02:19.931Z,49.30
2018-02-25T22:04:49.431Z,49.30
2018-02-25T22:07:19.235Z,49.30
2018-02-25T22:09:47.428Z,49.20
2018-02-25T22:12:16.611Z,49.20
2018-02-25T22:14:45.605Z,49.30
2018-02-25T22:17:14.165Z,49.20
2018-02-25T22:19:41.759Z,49.20
2018-02-25T22:22:09.383Z,49.20
2018-02-25T22:24:38.294Z,49.20
2018-02-25T22:27:06.980Z,49.20
2018-02-25T22:29:34.599Z,49.20
2018-02-25T22:32:03.824Z,49.20
2018-02-25T22:34:33.208Z,49.30
2018-02-25T22:37:03.106Z,49.20
2018-02-25T22:39:32.231Z,49.20
2018-02-25T22:42:02.356Z,49.30
2018-02-25T22:44:31.328Z,49.20
2018-02-25T22:46:59.811Z,49.20
2018-02-25T22:49:27.443Z,49.20
2018-02-25T22:51:57.412Z,49.20
2018-02-25T22:54:25.808Z,49.20
2018-02-25T22:56:54.052Z,49.20
2018-02-25T22:59:25.029Z,49.20
2018-02-25T23:01:53.359Z,49.10
2018-02-25T23:04:22.767Z,49.80
2018-02-25T23:06:52.932Z,49.20
2018-02-25T23:09:23.098Z,49.20
2018-02-25T23:11:51.476Z,49.10
2018-02-25T23:14:20.890Z,49.20
2018-02-25T23:16:51.905Z,49.20
2018-02-25T23:19:19.785Z,49.10
2018-02-25T23:21:47.893Z,49.20
2018-02-25T23:24:16.036Z,49.20
2018-02-25T23:26:44.784Z,49.20
2018-02-25T23:29:13.806Z,49.10
2018-02-25T23:31:42.286Z,49.10
2018-02-25T23:34:11.746Z,48.60
2018-02-25T23:36:41.254Z,49.20
2018-02-25T23:39:10.099Z,49.20
2018-02-25T23:41:39.167Z,49.20
2018-02-25T23:44:09.501Z,49.20
2018-02-25T23:46:38.783Z,49.20
2018-02-25T23:49:07.332Z,49.00
2018-02-25T23:51:35.749Z,49.10
2018-02-25T23:54:03.471Z,49.10
2018-02-25T23:56:32.916Z,49.10
2018-02-25T23:59:00.510Z,49.00
